createdAt,value
2018-03-27T00:01:41.096Z,2.67
2018-03-27T00:04:10.132Z,3.40
2018-03-27T00:06:38.502Z,3.80
2018-03-27T00:09:06.865Z,3.13
2018-03-27T00:11:35.125Z,3.67
2018-03-27T00:14:04.172Z,3.80
2018-03-27T00:16:32.577Z,3.30
2018-03-27T00:19:00.798Z,3.43
2018-03-27T00:21:29.076Z,3.77
2018-03-27T00:23:57.326Z,3.60
2018-03-27T00:26:25.593Z,4.40
2018-03-27T00:29:12.333Z,3.07
2018-03-27T00:31:58.484Z,3.57
2018-03-27T00:34:44.468Z,3.70
2018-03-27T00:37:30.624Z,3.50
2018-03-27T00:40:16.696Z,3.47
2018-03-27T00:42:51.544Z,3.60
2018-03-27T00:45:19.813Z,2.63
2018-03-27T00:47:48.080Z,3.60
2018-03-27T00:50:16.332Z,3.20
2018-03-27T00:52:45.381Z,3.35
2018-03-27T00:55:13.678Z,3.13
2018-03-27T00:57:41.938Z,3.47
2018-03-27T01:00:10.221Z,3.03
2018-03-27T01:02:38.480Z,3.57
2018-03-27T01:05:10.584Z,3.40
2018-03-27T01:07:38.853Z,3.90
2018-03-27T01:10:07.106Z,3.33
2018-03-27T01:12:35.372Z,3.17
2018-03-27T01:15:03.680Z,4.10
2018-03-27T01:17:31.936Z,4.10
2018-03-27T01:20:00.213Z,4.30
2018-03-27T01:22:28.465Z,4.20
2018-03-27T01:24:56.734Z,3.63
2018-03-27T01:27:25.018Z,3.93
2018-03-27T01:29:53.271Z,4.50
2018-03-27T01:32:22.304Z,3.80
2018-03-27T01:34:50.576Z,4.03
2018-03-27T01:37:18.834Z,3.67
2018-03-27T01:39:47.086Z,3.30
2018-03-27T01:42:16.136Z,3.83
2018-03-27T01:44:44.416Z,3.90
2018-03-27T01:47:12.691Z,3.00
2018-03-27T01:49:40.957Z,3.40
2018-03-27T01:52:09.214Z,3.30
2018-03-27T01:54:37.489Z,2.77
2018-03-27T01:57:05.753Z,3.07
2018-03-27T01:59:34.025Z,3.10
2018-03-27T02:02:02.301Z,3.27
2018-03-27T02:04:30.572Z,3.70
2018-03-27T02:06:59.742Z,3.22
2018-03-27T02:09:28.073Z,2.97
2018-03-27T02:12:01.860Z,3.80
2018-03-27T02:14:35.727Z,3.00
2018-03-27T02:17:09.526Z,3.13
2018-03-27T02:19:43.331Z,2.37
2018-03-27T02:22:11.589Z,3.50
2018-03-27T02:24:39.835Z,2.90
2018-03-27T02:27:08.105Z,2.90
2018-03-27T02:29:36.376Z,3.13
2018-03-27T02:32:04.637Z,2.65
2018-03-27T02:34:33.676Z,2.70
2018-03-27T02:37:01.927Z,3.47
2018-03-27T02:39:30.185Z,2.70
2018-03-27T02:42:00.448Z,3.10
2018-03-27T02:44:28.712Z,3.27
2018-03-27T02:46:56.980Z,3.00
2018-03-27T02:49:25.237Z,3.27
2018-03-27T02:51:54.298Z,3.70
2018-03-27T02:54:22.565Z,2.53
2018-03-27T02:56:50.822Z,3.20
2018-03-27T02:59:19.113Z,3.00
2018-03-27T03:01:47.372Z,3.00
2018-03-27T03:04:15.639Z,3.23
2018-03-27T03:06:43.908Z,3.27
2018-03-27T03:09:12.181Z,3.50
2018-03-27T03:11:40.435Z,3.33
2018-03-27T03:14:09.501Z,3.60
2018-03-27T03:16:37.747Z,3.00
2018-03-27T03:19:06.035Z,3.10
2018-03-27T03:21:34.292Z,2.90
2018-03-27T03:24:02.556Z,2.90
2018-03-27T03:26:30.812Z,2.93
2018-03-27T03:28:59.876Z,2.70
2018-03-27T03:31:28.125Z,3.10
2018-03-27T03:33:56.393Z,2.83
2018-03-27T03:36:24.660Z,2.93
2018-03-27T03:38:52.922Z,2.97
2018-03-27T03:41:21.421Z,3.27
2018-03-27T03:43:49.680Z,3.73
2018-03-27T03:46:18.706Z,3.10
2018-03-27T03:48:46.984Z,2.80
2018-03-27T03:51:15.276Z,2.70
2018-03-27T03:53:43.540Z,2.87
2018-03-27T03:56:11.825Z,3.47
2018-03-27T03:58:40.085Z,3.53
2018-03-27T04:01:08.362Z,3.00
2018-03-27T04:03:36.654Z,2.93
2018-03-27T04:06:04.924Z,2.90
2018-03-27T04:08:33.183Z,2.70
2018-03-27T04:11:01.453Z,3.57
2018-03-27T04:13:29.711Z,3.60
2018-03-27T04:15:57.961Z,3.40
2018-03-27T04:18:26.232Z,3.50
2018-03-27T04:20:54.492Z,3.50
2018-03-27T04:23:22.769Z,3.27
2018-03-27T04:25:51.024Z,3.70
2018-03-27T04:28:19.295Z,3.20
2018-03-27T04:30:47.584Z,3.30
2018-03-27T04:33:15.837Z,3.90
2018-03-27T04:35:44.088Z,4.03
2018-03-27T04:38:13.134Z,3.57
2018-03-27T04:40:41.517Z,3.97
2018-03-27T04:43:09.749Z,5.10
2018-03-27T04:45:38.033Z,4.37
2018-03-27T04:48:06.292Z,3.60
2018-03-27T04:50:34.549Z,3.93
2018-03-27T04:53:03.589Z,4.80
2018-03-27T04:55:31.844Z,3.57
2018-03-27T04:58:00.108Z,3.57
2018-03-27T05:00:29.163Z,4.37
2018-03-27T05:02:57.417Z,4.30
2018-03-27T05:05:25.730Z,5.80
2018-03-27T05:07:53.992Z,4.97
2018-03-27T05:10:22.256Z,5.13
2018-03-27T05:12:50.540Z,3.80
2018-03-27T05:15:18.796Z,3.97
2018-03-27T05:17:47.074Z,3.80
2018-03-27T05:20:15.340Z,3.60
2018-03-27T05:22:43.616Z,4.13
2018-03-27T05:25:11.879Z,4.50
2018-03-27T05:27:40.156Z,3.67
2018-03-27T05:30:08.417Z,4.33
2018-03-27T05:32:37.446Z,4.00
2018-03-27T05:35:05.732Z,3.53
2018-03-27T05:37:33.996Z,3.30
2018-03-27T05:40:02.278Z,3.50
2018-03-27T05:42:30.554Z,3.13
2018-03-27T05:44:58.814Z,3.77
2018-03-27T05:47:27.074Z,3.90
2018-03-27T05:49:55.372Z,5.40
2018-03-27T05:52:23.637Z,7.20
2018-03-27T05:54:51.907Z,6.07
2018-03-27T05:57:20.159Z,4.67
2018-03-27T05:59:49.202Z,4.97
2018-03-27T06:02:17.477Z,4.60
2018-03-27T06:04:45.727Z,3.97
2018-03-27T06:07:13.984Z,4.17
2018-03-27T06:09:43.012Z,4.40
2018-03-27T06:12:11.272Z,4.70
2018-03-27T06:14:39.548Z,4.70
2018-03-27T06:17:07.809Z,4.57
2018-03-27T06:19:36.830Z,4.57
2018-03-27T06:22:05.101Z,4.83
2018-03-27T06:24:33.362Z,4.13
2018-03-27T06:27:02.385Z,4.20
2018-03-27T06:29:30.664Z,3.23
2018-03-27T06:31:58.928Z,3.83
2018-03-27T06:34:27.201Z,3.53
2018-03-27T06:36:55.464Z,3.80
2018-03-27T06:39:23.718Z,4.17
2018-03-27T06:41:53.124Z,3.77
2018-03-27T06:44:22.153Z,4.23
2018-03-27T06:46:50.408Z,4.20
2018-03-27T06:49:18.725Z,3.93
2018-03-27T06:51:46.996Z,5.10
2018-03-27T06:54:15.256Z,5.07
2018-03-27T06:56:43.513Z,6.63
2018-03-27T06:59:11.788Z,6.80
2018-03-27T07:01:40.048Z,6.27
2018-03-27T07:04:09.086Z,7.33
2018-03-27T07:06:37.361Z,6.13
2018-03-27T07:09:06.424Z,6.27
2018-03-27T07:11:35.448Z,6.37
2018-03-27T07:14:03.831Z,5.70
2018-03-27T07:16:32.105Z,6.17
2018-03-27T07:19:00.390Z,5.67
2018-03-27T07:21:28.617Z,5.27
2018-03-27T07:23:57.661Z,5.70
2018-03-27T07:26:25.920Z,5.73
2018-03-27T07:28:54.184Z,5.83
2018-03-27T07:31:22.452Z,6.00
2018-03-27T07:33:50.716Z,6.10
2018-03-27T07:36:19.754Z,7.47
2018-03-27T07:38:48.014Z,6.37
2018-03-27T07:41:16.281Z,7.87
2018-03-27T07:43:44.606Z,8.43
2018-03-27T07:46:13.693Z,8.70
2018-03-27T07:48:42.035Z,8.87
2018-03-27T07:51:10.407Z,9.73
2018-03-27T07:53:38.670Z,8.97
2018-03-27T07:56:07.701Z,9.93
2018-03-27T07:58:35.994Z,12.23
2018-03-27T08:01:04.248Z,11.10
2018-03-27T08:03:32.552Z,10.95
2018-03-27T08:06:00.809Z,12.13
2018-03-27T08:08:29.091Z,12.87
2018-03-27T08:10:57.389Z,13.60
2018-03-27T08:13:25.725Z,14.10
2018-03-27T08:15:54.025Z,15.80
2018-03-27T08:18:22.288Z,13.60
2018-03-27T08:20:51.034Z,15.63
2018-03-27T08:23:20.081Z,13.27
2018-03-27T08:25:48.340Z,14.60
2018-03-27T08:28:16.625Z,14.93
2018-03-27T08:30:44.899Z,15.33
2018-03-27T08:33:13.171Z,14.50
2018-03-27T08:35:41.443Z,15.90
2018-03-27T08:38:09.709Z,15.10
2018-03-27T08:40:37.981Z,15.97
2018-03-27T08:43:06.244Z,15.53
2018-03-27T08:45:35.313Z,15.27
2018-03-27T08:48:03.593Z,15.47
2018-03-27T08:50:31.902Z,14.93
2018-03-27T08:53:00.176Z,15.47
2018-03-27T08:55:28.441Z,13.87
2018-03-27T08:57:57.484Z,14.00
2018-03-27T09:00:25.791Z,15.07
2018-03-27T09:02:54.060Z,13.43
2018-03-27T09:05:22.347Z,16.13
2018-03-27T09:07:50.637Z,15.38
2018-03-27T09:10:19.669Z,14.67
2018-03-27T09:12:47.941Z,14.80
2018-03-27T09:15:16.227Z,13.63
2018-03-27T09:17:44.497Z,15.77
2018-03-27T09:20:12.770Z,14.60
2018-03-27T09:22:41.040Z,13.27
2018-03-27T09:25:09.318Z,13.53
2018-03-27T09:27:37.576Z,13.23
2018-03-27T09:30:05.883Z,12.10
2018-03-27T09:32:34.168Z,12.73
2018-03-27T09:35:02.433Z,13.10
2018-03-27T09:37:30.707Z,11.57
2018-03-27T09:39:58.999Z,11.37
2018-03-27T09:42:27.285Z,11.40
2018-03-27T09:44:55.586Z,9.70
2018-03-27T09:47:23.851Z,10.60
2018-03-27T09:49:52.162Z,10.63
2018-03-27T09:52:20.436Z,8.90
2018-03-27T09:54:48.727Z,7.90
2018-03-27T09:57:17.021Z,6.20
2018-03-27T09:59:45.281Z,6.00
2018-03-27T10:02:13.567Z,7.00
2018-03-27T10:04:41.838Z,7.43
2018-03-27T10:07:10.114Z,7.70
2018-03-27T10:09:38.400Z,7.67
2018-03-27T10:12:06.671Z,7.50
2018-03-27T10:14:34.953Z,6.33
2018-03-27T10:17:03.228Z,6.93
2018-03-27T10:19:31.523Z,5.77
2018-03-27T10:21:59.791Z,5.00
2018-03-27T10:24:28.078Z,6.20
2018-03-27T10:26:56.337Z,5.97
2018-03-27T10:29:24.634Z,9.77
2018-03-27T10:31:52.901Z,6.03
2018-03-27T10:34:21.165Z,6.67
2018-03-27T10:36:49.451Z,6.60
2018-03-27T10:39:17.852Z,5.50
2018-03-27T10:41:46.117Z,6.10
2018-03-27T10:44:14.387Z,6.20
2018-03-27T10:46:42.656Z,6.10
2018-03-27T10:49:10.960Z,6.53
2018-03-27T10:51:39.237Z,6.07
2018-03-27T10:54:07.539Z,7.10
2018-03-27T10:56:36.627Z,6.50
2018-03-27T10:59:05.677Z,6.37
2018-03-27T11:01:33.936Z,7.43
2018-03-27T11:04:02.226Z,7.00
2018-03-27T11:06:30.507Z,6.53
2018-03-27T11:08:58.780Z,7.13
2018-03-27T11:11:27.070Z,6.80
2018-03-27T11:13:55.337Z,6.70
2018-03-27T11:16:23.618Z,7.40
2018-03-27T11:18:51.895Z,8.23
2018-03-27T11:21:20.177Z,6.83
2018-03-27T11:23:48.445Z,7.30
2018-03-27T11:26:16.734Z,7.33
2018-03-27T11:28:45.013Z,9.75
2018-03-27T11:31:14.073Z,6.97
2018-03-27T11:33:42.374Z,7.33
2018-03-27T11:36:10.637Z,6.20
2018-03-27T11:38:38.928Z,6.30
2018-03-27T11:41:07.188Z,6.20
2018-03-27T11:43:35.468Z,5.57
2018-03-27T11:46:03.739Z,6.60
2018-03-27T11:48:32.016Z,6.20
2018-03-27T11:51:00.313Z,6.57
2018-03-27T11:53:28.582Z,6.00
2018-03-27T11:55:56.844Z,5.90
2018-03-27T11:58:25.129Z,6.30
2018-03-27T12:00:53.396Z,6.60
2018-03-27T12:03:21.693Z,5.87
2018-03-27T12:05:49.950Z,5.30
2018-03-27T12:08:18.249Z,5.87
2018-03-27T12:10:46.532Z,5.67
2018-03-27T12:13:14.817Z,5.57
2018-03-27T12:15:43.105Z,6.13
2018-03-27T12:18:12.128Z,5.90
2018-03-27T12:20:40.421Z,6.30
2018-03-27T12:23:08.689Z,7.10
2018-03-27T12:25:36.962Z,6.23
2018-03-27T12:28:05.245Z,5.87
2018-03-27T12:30:33.513Z,6.13
2018-03-27T12:33:01.793Z,6.60
2018-03-27T12:35:30.077Z,6.53
2018-03-27T12:37:58.369Z,6.57
2018-03-27T12:40:26.632Z,7.30
2018-03-27T12:42:54.901Z,6.47
2018-03-27T12:45:23.176Z,6.40
2018-03-27T12:47:51.469Z,10.25
2018-03-27T12:50:19.758Z,6.60
2018-03-27T12:52:48.032Z,6.83
2018-03-27T12:55:16.335Z,6.20
2018-03-27T12:57:45.377Z,6.90
2018-03-27T13:00:13.648Z,6.90
2018-03-27T13:02:41.932Z,6.90
2018-03-27T13:05:10.223Z,5.83
2018-03-27T13:07:38.504Z,6.85
2018-03-27T13:10:06.788Z,6.33
2018-03-27T13:12:35.056Z,5.83
2018-03-27T13:15:03.341Z,6.57
2018-03-27T13:17:31.651Z,7.03
2018-03-27T13:20:00.702Z,6.37
2018-03-27T13:22:28.973Z,6.40
2018-03-27T13:24:57.281Z,6.20
2018-03-27T13:27:25.558Z,8.17
2018-03-27T13:29:53.824Z,8.33
2018-03-27T13:32:22.164Z,6.90
2018-03-27T13:34:51.152Z,7.40
2018-03-27T13:37:19.440Z,7.80
2018-03-27T13:39:47.729Z,7.77
2018-03-27T13:42:16.008Z,9.43
2018-03-27T13:44:44.286Z,8.70
2018-03-27T13:47:12.576Z,7.27
2018-03-27T13:49:40.836Z,7.33
2018-03-27T13:52:09.101Z,8.00
2018-03-27T13:54:37.385Z,8.20
2018-03-27T13:57:05.645Z,7.93
2018-03-27T13:59:33.922Z,8.97
2018-03-27T14:02:02.210Z,8.90
2018-03-27T14:04:30.479Z,9.73
2018-03-27T14:06:58.745Z,9.73
2018-03-27T14:09:27.034Z,9.67
2018-03-27T14:11:55.298Z,9.90
2018-03-27T14:14:23.584Z,10.30
2018-03-27T14:16:51.848Z,10.53
2018-03-27T14:19:20.126Z,9.23
2018-03-27T14:21:48.408Z,10.87
2018-03-27T14:24:16.681Z,10.60
2018-03-27T14:26:44.960Z,10.40
2018-03-27T14:29:13.300Z,10.60
2018-03-27T14:31:42.340Z,10.47
2018-03-27T14:34:10.632Z,11.23
2018-03-27T14:36:38.902Z,10.03
2018-03-27T14:39:08.132Z,10.53
2018-03-27T14:41:37.168Z,11.43
2018-03-27T14:44:05.444Z,11.00
2018-03-27T14:46:33.730Z,10.50
2018-03-27T14:49:02.001Z,11.27
2018-03-27T14:51:30.289Z,12.40
2018-03-27T14:53:58.557Z,11.13
2018-03-27T14:56:26.828Z,11.20
2018-03-27T14:58:55.191Z,10.03
2018-03-27T15:01:23.461Z,10.63
2018-03-27T15:03:51.732Z,12.20
2018-03-27T15:06:20.017Z,10.00
2018-03-27T15:08:48.301Z,10.70
2018-03-27T15:11:16.617Z,11.17
2018-03-27T15:13:44.898Z,10.50
2018-03-27T15:16:13.168Z,9.80
2018-03-27T15:18:41.456Z,9.63
2018-03-27T15:21:09.773Z,8.97
2018-03-27T15:23:38.036Z,10.07
2018-03-27T15:26:07.169Z,10.00
2018-03-27T15:28:35.431Z,9.97
2018-03-27T15:31:03.717Z,9.67
2018-03-27T15:33:32.089Z,9.20
2018-03-27T15:36:01.099Z,9.70
2018-03-27T15:38:29.400Z,9.80
2018-03-27T15:40:57.676Z,9.73
2018-03-27T15:43:25.972Z,9.38
2018-03-27T15:45:55.009Z,9.73
2018-03-27T15:48:23.301Z,11.43
2018-03-27T15:50:51.578Z,11.27
2018-03-27T15:53:19.840Z,11.00
2018-03-27T15:55:48.127Z,10.30
2018-03-27T15:58:16.402Z,9.17
2018-03-27T16:00:44.668Z,10.17
2018-03-27T16:03:12.978Z,9.27
2018-03-27T16:05:41.244Z,11.23
2018-03-27T16:08:09.592Z,10.57
2018-03-27T16:10:37.974Z,11.17
2018-03-27T16:13:06.270Z,10.23
2018-03-27T16:15:34.581Z,11.20
2018-03-27T16:18:03.018Z,11.90
2018-03-27T16:20:31.289Z,11.40
2018-03-27T16:22:59.662Z,13.17
2018-03-27T16:25:27.946Z,10.70
2018-03-27T16:27:56.276Z,10.53
2018-03-27T16:30:25.297Z,11.63
2018-03-27T16:32:53.588Z,10.40
2018-03-27T16:35:21.938Z,10.90
2018-03-27T16:37:51.267Z,10.93
2018-03-27T16:40:20.759Z,12.47
2018-03-27T16:42:49.154Z,12.27
2018-03-27T16:45:17.646Z,11.70
2018-03-27T16:47:46.258Z,13.00
2018-03-27T16:50:16.648Z,13.43
2018-03-27T16:52:46.620Z,11.73
2018-03-27T16:55:15.834Z,13.10
2018-03-27T16:57:45.194Z,13.30
2018-03-27T17:00:15.225Z,12.30
2018-03-27T17:02:44.219Z,12.10
2018-03-27T17:05:13.913Z,13.53
2018-03-27T17:07:43.730Z,13.33
2018-03-27T17:10:13.456Z,12.50
2018-03-27T17:12:43.192Z,13.37
2018-03-27T17:15:13.172Z,12.50
2018-03-27T17:17:43.119Z,12.97
2018-03-27T17:20:13.826Z,14.10
2018-03-27T17:22:43.797Z,11.70
2018-03-27T17:25:13.729Z,11.47
2018-03-27T17:27:43.529Z,10.68
2018-03-27T17:30:13.638Z,10.40
2018-03-27T17:32:43.541Z,11.40
2018-03-27T17:35:13.498Z,10.83
2018-03-27T17:37:43.488Z,10.33
2018-03-27T17:40:14.111Z,9.87
2018-03-27T17:42:44.859Z,10.67
2018-03-27T17:45:14.858Z,12.63
2018-03-27T17:47:44.842Z,11.10
2018-03-27T17:50:14.822Z,14.57
2018-03-27T17:52:44.733Z,10.60
2018-03-27T17:55:14.487Z,11.37
2018-03-27T17:57:45.345Z,9.50
2018-03-27T18:00:15.326Z,11.67
2018-03-27T18:02:45.156Z,11.60
2018-03-27T18:05:16.003Z,11.33
2018-03-27T18:07:45.849Z,10.07
2018-03-27T18:10:15.989Z,11.73
2018-03-27T18:12:45.826Z,10.63
2018-03-27T18:15:15.790Z,11.30
2018-03-27T18:17:45.737Z,12.20
2018-03-27T18:20:15.745Z,13.40
2018-03-27T18:22:45.593Z,12.93
2018-03-27T18:25:16.008Z,13.00
2018-03-27T18:27:46.076Z,11.53
2018-03-27T18:30:16.407Z,12.97
2018-03-27T18:32:46.657Z,14.53
2018-03-27T18:35:16.537Z,11.50
2018-03-27T18:37:46.274Z,13.43
2018-03-27T18:40:16.378Z,13.50
2018-03-27T18:42:46.400Z,13.00
2018-03-27T18:45:16.415Z,12.67
2018-03-27T18:47:46.303Z,13.63
2018-03-27T18:50:16.970Z,13.70
2018-03-27T18:52:46.911Z,15.00
2018-03-27T18:55:17.819Z,13.63
2018-03-27T18:57:47.868Z,12.33
2018-03-27T19:00:18.954Z,12.63
2018-03-27T19:02:48.346Z,13.37
2018-03-27T19:05:18.550Z,12.70
2018-03-27T19:07:48.318Z,13.33
2018-03-27T19:10:17.812Z,13.10
2018-03-27T19:12:47.245Z,14.80
2018-03-27T19:15:16.575Z,14.50
2018-03-27T19:17:45.961Z,14.00
2018-03-27T19:20:15.277Z,13.13
2018-03-27T19:22:45.384Z,12.97
2018-03-27T19:25:14.725Z,12.63
2018-03-27T19:27:44.116Z,12.70
2018-03-27T19:30:14.200Z,11.33
2018-03-27T19:32:43.658Z,11.83
2018-03-27T19:35:12.939Z,13.70
2018-03-27T19:37:42.240Z,12.67
2018-03-27T19:40:12.367Z,12.50
2018-03-27T19:42:43.058Z,13.07
2018-03-27T19:45:13.208Z,12.37
2018-03-27T19:47:43.034Z,12.03
2018-03-27T19:50:12.419Z,13.60
2018-03-27T19:52:42.608Z,11.77
2018-03-27T19:55:12.072Z,12.40
2018-03-27T19:57:41.379Z,11.70
2018-03-27T20:00:10.810Z,11.87
2018-03-27T20:02:40.301Z,11.53
2018-03-27T20:05:09.744Z,11.00
2018-03-27T20:07:39.067Z,11.18
2018-03-27T20:10:08.513Z,10.80
2018-03-27T20:12:38.495Z,10.33
2018-03-27T20:15:08.560Z,10.93
2018-03-27T20:17:39.374Z,10.73
2018-03-27T20:20:08.944Z,9.90
2018-03-27T20:22:38.301Z,10.90
2018-03-27T20:25:07.703Z,10.00
2018-03-27T20:27:37.143Z,10.63
2018-03-27T20:30:07.302Z,10.17
2018-03-27T20:32:36.711Z,10.70
2018-03-27T20:35:05.991Z,11.17
2018-03-27T20:37:36.401Z,10.97
2018-03-27T20:40:06.499Z,10.90
2018-03-27T20:42:35.951Z,11.00
2018-03-27T20:45:05.373Z,10.87
2018-03-27T20:47:34.716Z,11.77
2018-03-27T20:50:04.136Z,8.77
2018-03-27T20:52:33.478Z,10.90
2018-03-27T20:55:02.770Z,10.43
2018-03-27T20:57:33.692Z,16.50
2018-03-27T21:00:03.714Z,16.30
2018-03-27T21:02:33.111Z,17.35
2018-03-27T21:05:02.458Z,17.52
2018-03-27T21:07:33.303Z,17.33
2018-03-27T21:10:02.620Z,21.30
2018-03-27T21:12:32.715Z,18.48
2018-03-27T21:15:02.062Z,11.17
2018-03-27T21:17:33.487Z,10.73
2018-03-27T21:20:03.762Z,11.30
2018-03-27T21:22:33.376Z,12.00
2018-03-27T21:25:02.864Z,12.03
2018-03-27T21:27:33.708Z,12.35
2018-03-27T21:30:03.246Z,11.07
2018-03-27T21:32:32.894Z,12.23
2018-03-27T21:35:02.391Z,11.70
2018-03-27T21:37:33.547Z,13.37
2018-03-27T21:40:03.756Z,14.60
2018-03-27T21:42:33.207Z,12.20
2018-03-27T21:45:02.460Z,14.73
2018-03-27T21:47:31.830Z,13.70
2018-03-27T21:50:01.205Z,14.27
2018-03-27T21:52:30.394Z,13.73
2018-03-27T21:54:59.656Z,13.70
2018-03-27T21:57:29.811Z,12.57
2018-03-27T21:59:59.085Z,12.27
2018-03-27T22:02:29.194Z,10.90
2018-03-27T22:04:59.342Z,13.10
2018-03-27T22:07:28.618Z,11.20
2018-03-27T22:09:58.293Z,10.60
2018-03-27T22:12:27.486Z,11.60
2018-03-27T22:14:56.325Z,11.13
2018-03-27T22:17:24.790Z,10.03
2018-03-27T22:19:53.120Z,10.27
2018-03-27T22:22:21.393Z,10.03
2018-03-27T22:24:49.665Z,11.17
2018-03-27T22:27:17.966Z,10.60
2018-03-27T22:29:46.997Z,11.60
2018-03-27T22:32:15.273Z,10.10
2018-03-27T22:34:43.564Z,11.23
2018-03-27T22:37:11.822Z,10.40
2018-03-27T22:39:40.076Z,9.97
2018-03-27T22:42:09.116Z,11.13
2018-03-27T22:44:37.384Z,10.90
2018-03-27T22:47:05.641Z,8.93
2018-03-27T22:49:33.917Z,11.30
2018-03-27T22:52:02.168Z,9.97
2018-03-27T22:54:31.193Z,11.73
2018-03-27T22:56:59.472Z,10.80
2018-03-27T22:59:27.737Z,10.20
2018-03-27T23:01:55.996Z,11.57
2018-03-27T23:04:24.282Z,10.17
2018-03-27T23:06:52.536Z,9.63
2018-03-27T23:09:21.578Z,10.33
2018-03-27T23:11:49.868Z,10.30
2018-03-27T23:14:18.137Z,11.60
2018-03-27T23:16:46.428Z,11.30
2018-03-27T23:19:14.696Z,10.88
2018-03-27T23:21:42.953Z,11.37
2018-03-27T23:24:11.256Z,10.03
2018-03-27T23:26:39.532Z,9.53
2018-03-27T23:29:07.794Z,10.60
2018-03-27T23:31:36.048Z,9.50
2018-03-27T23:34:04.332Z,10.73
2018-03-27T23:36:32.584Z,9.87
2018-03-27T23:39:00.850Z,9.40
2018-03-27T23:41:30.253Z,8.87
2018-03-27T23:43:59.304Z,10.40
2018-03-27T23:46:27.568Z,10.93
2018-03-27T23:48:55.837Z,11.00
2018-03-27T23:51:24.096Z,8.97
2018-03-27T23:53:52.385Z,10.30
2018-03-27T23:56:20.637Z,9.70
2018-03-27T23:58:48.936Z,9.40
